sensor_id;sensor_type;location;lat;lon;timestamp;pressure;altitude;pressure_sealevel;temperature;humidity
55801;BME280;41730;51.960;20.158;2022-12-29T00:01:40;99955.61;;;6.62;67.52
55801;BME280;41730;51.960;20.158;2022-12-29T00:04:13;99954.62;;;6.69;67.27
55801;BME280;41730;51.960;20.158;2022-12-29T00:06:45;99952.69;;;6.57;67.55
55801;BME280;41730;51.960;20.158;2022-12-29T00:09:18;99956.98;;;6.53;67.73
55801;BME280;41730;51.960;20.158;2022-12-29T00:11:50;99956.79;;;6.43;67.90
55801;BME280;41730;51.960;20.158;2022-12-29T00:14:22;99952.25;;;6.43;68.01
55801;BME280;41730;51.960;20.158;2022-12-29T00:17:10;99949.17;;;6.52;67.74
55801;BME280;41730;51.960;20.158;2022-12-29T00:19:42;99948.58;;;6.71;67.30
55801;BME280;41730;51.960;20.158;2022-12-29T00:22:28;99948.77;;;6.85;66.87
55801;BME280;41730;51.960;20.158;2022-12-29T00:25:17;99947.27;;;6.79;66.91
55801;BME280;41730;51.960;20.158;2022-12-29T00:28:07;99945.61;;;6.61;67.26
55801;BME280;41730;51.960;20.158;2022-12-29T00:31:00;99942.23;;;6.62;67.13
55801;BME280;41730;51.960;20.158;2022-12-29T00:33:49;99938.59;;;6.67;67.02
55801;BME280;41730;51.960;20.158;2022-12-29T00:36:40;99941.12;;;6.55;67.11
55801;BME280;41730;51.960;20.158;2022-12-29T00:39:11;99942.29;;;6.59;67.27
55801;BME280;41730;51.960;20.158;2022-12-29T00:42:06;99940.80;;;6.57;67.13
55801;BME280;41730;51.960;20.158;2022-12-29T00:45:04;99935.13;;;6.59;67.06
55801;BME280;41730;51.960;20.158;2022-12-29T00:47:36;99933.17;;;6.77;66.70
55801;BME280;41730;51.960;20.158;2022-12-29T00:50:08;99937.20;;;6.74;66.47
55801;BME280;41730;51.960;20.158;2022-12-29T00:52:40;99933.42;;;6.61;66.89
55801;BME280;41730;51.960;20.158;2022-12-29T00:55:12;99927.69;;;6.63;66.97
55801;BME280;41730;51.960;20.158;2022-12-29T00:57:43;99921.33;;;6.62;66.79
55801;BME280;41730;51.960;20.158;2022-12-29T01:00:16;99921.95;;;6.53;67.08
55801;BME280;41730;51.960;20.158;2022-12-29T01:02:48;99923.70;;;6.50;67.11
55801;BME280;41730;51.960;20.158;2022-12-29T01:05:20;99922.19;;;6.47;67.20
55801;BME280;41730;51.960;20.158;2022-12-29T01:07:51;99918.77;;;6.41;67.33
55801;BME280;41730;51.960;20.158;2022-12-29T01:10:23;99914.67;;;6.50;67.04
55801;BME280;41730;51.960;20.158;2022-12-29T01:12:54;99914.98;;;6.58;66.72
55801;BME280;41730;51.960;20.158;2022-12-29T01:15:26;99912.38;;;6.48;67.03
55801;BME280;41730;51.960;20.158;2022-12-29T01:17:58;99913.16;;;6.37;67.18
55801;BME280;41730;51.960;20.158;2022-12-29T01:20:29;99903.29;;;6.29;67.39
55801;BME280;41730;51.960;20.158;2022-12-29T01:23:01;99901.52;;;6.24;67.62
55801;BME280;41730;51.960;20.158;2022-12-29T01:25:33;99887.46;;;6.33;67.33
55801;BME280;41730;51.960;20.158;2022-12-29T01:28:05;99886.70;;;6.54;66.72
55801;BME280;41730;51.960;20.158;2022-12-29T01:30:38;99884.38;;;6.70;66.36
55801;BME280;41730;51.960;20.158;2022-12-29T01:33:09;99879.67;;;6.70;66.04
55801;BME280;41730;51.960;20.158;2022-12-29T01:35:41;99879.21;;;6.61;66.41
55801;BME280;41730;51.960;20.158;2022-12-29T01:38:13;99883.60;;;6.49;66.61
55801;BME280;41730;51.960;20.158;2022-12-29T01:40:47;99884.02;;;6.48;66.67
55801;BME280;41730;51.960;20.158;2022-12-29T01:43:19;99880.54;;;6.52;66.56
55801;BME280;41730;51.960;20.158;2022-12-29T01:45:53;99876.59;;;6.54;66.68
55801;BME280;41730;51.960;20.158;2022-12-29T01:48:25;99880.95;;;6.66;66.17
55801;BME280;41730;51.960;20.158;2022-12-29T01:50:57;99878.13;;;6.69;66.17
55801;BME280;41730;51.960;20.158;2022-12-29T01:53:31;99881.51;;;6.63;66.32
55801;BME280;41730;51.960;20.158;2022-12-29T01:56:07;99878.16;;;6.76;65.99
55801;BME280;41730;51.960;20.158;2022-12-29T01:58:44;99876.06;;;6.83;65.78
55801;BME280;41730;51.960;20.158;2022-12-29T02:01:19;99885.10;;;6.81;65.86
55801;BME280;41730;51.960;20.158;2022-12-29T02:03:52;99880.54;;;6.94;65.59
55801;BME280;41730;51.960;20.158;2022-12-29T02:06:26;99879.66;;;6.79;65.73
55801;BME280;41730;51.960;20.158;2022-12-29T02:09:00;99876.25;;;6.66;66.06
55801;BME280;41730;51.960;20.158;2022-12-29T02:11:32;99875.06;;;6.58;66.36
55801;BME280;41730;51.960;20.158;2022-12-29T02:14:10;99879.64;;;6.55;66.49
55801;BME280;41730;51.960;20.158;2022-12-29T02:16:52;99879.15;;;6.57;66.49
55801;BME280;41730;51.960;20.158;2022-12-29T02:19:52;99876.60;;;6.61;66.45
55801;BME280;41730;51.960;20.158;2022-12-29T02:22:33;99876.94;;;6.56;66.50
55801;BME280;41730;51.960;20.158;2022-12-29T02:31:31;99874.77;;;6.75;65.91
55801;BME280;41730;51.960;20.158;2022-12-29T02:34:14;99871.87;;;6.62;66.36
55801;BME280;41730;51.960;20.158;2022-12-29T02:36:58;99856.36;;;6.59;66.31
55801;BME280;41730;51.960;20.158;2022-12-29T02:39:37;99850.50;;;6.66;66.11
55801;BME280;41730;51.960;20.158;2022-12-29T02:42:17;99852.86;;;6.70;65.93
55801;BME280;41730;51.960;20.158;2022-12-29T02:44:59;99843.67;;;6.61;66.19
55801;BME280;41730;51.960;20.158;2022-12-29T02:47:39;99818.73;;;6.62;66.14
55801;BME280;41730;51.960;20.158;2022-12-29T02:50:17;99794.70;;;6.69;66.00
55801;BME280;41730;51.960;20.158;2022-12-29T02:52:52;99810.95;;;6.63;66.06
55801;BME280;41730;51.960;20.158;2022-12-29T02:55:26;99812.64;;;6.59;66.14
55801;BME280;41730;51.960;20.158;2022-12-29T02:58:19;99816.96;;;6.62;66.16
55801;BME280;41730;51.960;20.158;2022-12-29T03:01:00;99816.38;;;6.71;65.98
55801;BME280;41730;51.960;20.158;2022-12-29T03:03:46;99831.25;;;6.62;66.28
55801;BME280;41730;51.960;20.158;2022-12-29T03:06:33;99846.56;;;6.62;66.35
55801;BME280;41730;51.960;20.158;2022-12-29T03:09:14;99846.63;;;6.78;65.94
55801;BME280;41730;51.960;20.158;2022-12-29T03:11:50;99827.20;;;6.94;65.41
55801;BME280;41730;51.960;20.158;2022-12-29T03:14:55;99813.33;;;6.88;65.53
55801;BME280;41730;51.960;20.158;2022-12-29T03:17:54;99803.66;;;6.70;66.01
55801;BME280;41730;51.960;20.158;2022-12-29T03:20:34;99814.66;;;6.63;66.10
55801;BME280;41730;51.960;20.158;2022-12-29T03:23:10;99817.95;;;6.65;66.06
55801;BME280;41730;51.960;20.158;2022-12-29T03:25:46;99814.67;;;6.79;65.66
55801;BME280;41730;51.960;20.158;2022-12-29T03:28:21;99813.94;;;6.70;65.73
55801;BME280;41730;51.960;20.158;2022-12-29T03:30:54;99805.17;;;6.67;65.92
55801;BME280;41730;51.960;20.158;2022-12-29T03:33:28;99804.52;;;6.73;65.72
55801;BME280;41730;51.960;20.158;2022-12-29T03:36:04;99794.15;;;6.67;65.77
55801;BME280;41730;51.960;20.158;2022-12-29T03:38:35;99804.48;;;6.64;65.88
55801;BME280;41730;51.960;20.158;2022-12-29T03:41:14;99793.30;;;6.76;65.81
55801;BME280;41730;51.960;20.158;2022-12-29T03:43:49;99783.10;;;6.77;65.52
55801;BME280;41730;51.960;20.158;2022-12-29T03:46:20;99783.59;;;6.73;65.49
55801;BME280;41730;51.960;20.158;2022-12-29T03:48:52;99781.50;;;6.83;65.25
55801;BME280;41730;51.960;20.158;2022-12-29T03:51:24;99781.98;;;6.86;65.14
55801;BME280;41730;51.960;20.158;2022-12-29T03:53:56;99787.21;;;6.71;65.40
55801;BME280;41730;51.960;20.158;2022-12-29T03:56:27;99783.91;;;6.76;65.25
55801;BME280;41730;51.960;20.158;2022-12-29T03:58:59;99783.64;;;6.75;65.35
55801;BME280;41730;51.960;20.158;2022-12-29T04:01:30;99778.34;;;6.67;65.53
55801;BME280;41730;51.960;20.158;2022-12-29T04:04:03;99784.98;;;6.69;65.64
55801;BME280;41730;51.960;20.158;2022-12-29T04:06:34;99776.34;;;6.70;65.43
55801;BME280;41730;51.960;20.158;2022-12-29T04:09:06;99768.53;;;6.62;65.70
55801;BME280;41730;51.960;20.158;2022-12-29T04:11:38;99760.63;;;6.60;65.62
55801;BME280;41730;51.960;20.158;2022-12-29T04:14:09;99763.02;;;6.69;65.15
55801;BME280;41730;51.960;20.158;2022-12-29T04:16:41;99758.05;;;6.53;65.24
55801;BME280;41730;51.960;20.158;2022-12-29T04:19:14;99760.91;;;6.43;65.75
55801;BME280;41730;51.960;20.158;2022-12-29T04:21:47;99763.66;;;6.41;65.77
55801;BME280;41730;51.960;20.158;2022-12-29T04:24:19;99757.73;;;6.36;65.93
55801;BME280;41730;51.960;20.158;2022-12-29T04:26:50;99744.49;;;6.34;65.90
55801;BME280;41730;51.960;20.158;2022-12-29T04:29:22;99741.58;;;6.45;65.61
55801;BME280;41730;51.960;20.158;2022-12-29T04:31:54;99731.21;;;6.49;65.32
55801;BME280;41730;51.960;20.158;2022-12-29T04:34:28;99728.82;;;6.41;65.42
55801;BME280;41730;51.960;20.158;2022-12-29T04:37:05;99723.61;;;6.34;65.68
55801;BME280;41730;51.960;20.158;2022-12-29T04:39:38;99724.71;;;6.50;65.31
55801;BME280;41730;51.960;20.158;2022-12-29T04:42:10;99727.60;;;6.67;64.94
55801;BME280;41730;51.960;20.158;2022-12-29T04:44:42;99728.64;;;6.81;64.25
55801;BME280;41730;51.960;20.158;2022-12-29T04:47:14;99725.33;;;6.86;64.07
55801;BME280;41730;51.960;20.158;2022-12-29T04:49:46;99717.94;;;6.68;64.47
55801;BME280;41730;51.960;20.158;2022-12-29T04:52:17;99716.46;;;6.55;64.77
55801;BME280;41730;51.960;20.158;2022-12-29T04:54:49;99717.09;;;6.46;65.08
55801;BME280;41730;51.960;20.158;2022-12-29T04:57:21;99719.56;;;6.41;65.18
55801;BME280;41730;51.960;20.158;2022-12-29T04:59:52;99718.23;;;6.40;65.12
55801;BME280;41730;51.960;20.158;2022-12-29T05:02:24;99716.12;;;6.38;65.17
55801;BME280;41730;51.960;20.158;2022-12-29T05:04:56;99712.79;;;6.46;64.99
55801;BME280;41730;51.960;20.158;2022-12-29T05:07:28;99708.64;;;6.40;65.19
55801;BME280;41730;51.960;20.158;2022-12-29T05:10:00;99708.09;;;6.44;65.16
55801;BME280;41730;51.960;20.158;2022-12-29T05:12:33;99706.73;;;6.45;65.14
55801;BME280;41730;51.960;20.158;2022-12-29T05:15:08;99699.58;;;6.43;65.11
55801;BME280;41730;51.960;20.158;2022-12-29T05:17:40;99695.86;;;6.44;65.02
55801;BME280;41730;51.960;20.158;2022-12-29T05:20:12;99693.23;;;6.44;65.04
55801;BME280;41730;51.960;20.158;2022-12-29T05:22:43;99682.42;;;6.51;64.90
55801;BME280;41730;51.960;20.158;2022-12-29T05:25:15;99679.80;;;6.49;64.67
55801;BME280;41730;51.960;20.158;2022-12-29T05:27:47;99678.83;;;6.41;64.96
55801;BME280;41730;51.960;20.158;2022-12-29T05:30:19;99683.21;;;6.41;64.95
55801;BME280;41730;51.960;20.158;2022-12-29T05:32:51;99684.73;;;6.39;65.13
55801;BME280;41730;51.960;20.158;2022-12-29T05:35:23;99688.77;;;6.41;65.02
55801;BME280;41730;51.960;20.158;2022-12-29T05:37:55;99685.23;;;6.44;64.78
55801;BME280;41730;51.960;20.158;2022-12-29T05:40:27;99683.64;;;6.47;64.71
55801;BME280;41730;51.960;20.158;2022-12-29T05:42:58;99684.59;;;6.46;64.89
55801;BME280;41730;51.960;20.158;2022-12-29T05:45:30;99681.48;;;6.50;64.75
55801;BME280;41730;51.960;20.158;2022-12-29T05:48:02;99675.63;;;6.51;64.68
55801;BME280;41730;51.960;20.158;2022-12-29T05:50:34;99677.77;;;6.46;64.83
55801;BME280;41730;51.960;20.158;2022-12-29T05:53:06;99671.87;;;6.41;65.08
55801;BME280;41730;51.960;20.158;2022-12-29T05:55:37;99677.41;;;6.55;64.73
55801;BME280;41730;51.960;20.158;2022-12-29T05:58:17;99681.78;;;6.53;64.75
55801;BME280;41730;51.960;20.158;2022-12-29T06:00:49;99700.55;;;6.51;64.86
55801;BME280;41730;51.960;20.158;2022-12-29T06:03:20;99705.23;;;6.47;64.79
55801;BME280;41730;51.960;20.158;2022-12-29T06:05:52;99701.81;;;6.46;64.64
55801;BME280;41730;51.960;20.158;2022-12-29T06:08:24;99698.70;;;6.53;64.57
55801;BME280;41730;51.960;20.158;2022-12-29T06:10:56;99697.95;;;6.56;64.28
55801;BME280;41730;51.960;20.158;2022-12-29T06:13:27;99693.94;;;6.46;64.22
55801;BME280;41730;51.960;20.158;2022-12-29T06:15:59;99690.83;;;6.44;64.36
55801;BME280;41730;51.960;20.158;2022-12-29T06:18:32;99690.86;;;6.50;64.38
55801;BME280;41730;51.960;20.158;2022-12-29T06:21:05;99686.77;;;6.47;64.43
55801;BME280;41730;51.960;20.158;2022-12-29T06:23:37;99693.85;;;6.41;64.75
55801;BME280;41730;51.960;20.158;2022-12-29T06:26:09;99697.44;;;6.42;65.00
55801;BME280;41730;51.960;20.158;2022-12-29T06:28:40;99703.27;;;6.47;64.66
55801;BME280;41730;51.960;20.158;2022-12-29T06:31:12;99706.94;;;6.50;64.61
55801;BME280;41730;51.960;20.158;2022-12-29T06:33:44;99705.26;;;6.60;64.31
55801;BME280;41730;51.960;20.158;2022-12-29T06:36:19;99704.34;;;6.64;64.25
55801;BME280;41730;51.960;20.158;2022-12-29T06:38:50;99696.12;;;6.59;64.28
55801;BME280;41730;51.960;20.158;2022-12-29T06:41:23;99692.75;;;6.58;64.45
55801;BME280;41730;51.960;20.158;2022-12-29T06:44:01;99688.48;;;6.54;64.57
55801;BME280;41730;51.960;20.158;2022-12-29T06:46:32;99684.35;;;6.53;64.48
55801;BME280;41730;51.960;20.158;2022-12-29T06:49:05;99683.25;;;6.54;64.49
55801;BME280;41730;51.960;20.158;2022-12-29T06:51:36;99681.16;;;6.54;64.66
55801;BME280;41730;51.960;20.158;2022-12-29T06:54:08;99683.56;;;6.59;64.74
55801;BME280;41730;51.960;20.158;2022-12-29T06:56:40;99684.71;;;6.65;64.65
55801;BME280;41730;51.960;20.158;2022-12-29T06:59:12;99687.36;;;6.67;64.64
55801;BME280;41730;51.960;20.158;2022-12-29T07:01:43;99689.02;;;6.77;64.51
55801;BME280;41730;51.960;20.158;2022-12-29T07:04:15;99688.72;;;6.79;64.51
55801;BME280;41730;51.960;20.158;2022-12-29T07:06:48;99680.67;;;6.80;64.48
55801;BME280;41730;51.960;20.158;2022-12-29T07:09:19;99678.38;;;6.89;64.20
55801;BME280;41730;51.960;20.158;2022-12-29T07:11:51;99676.36;;;7.00;64.03
55801;BME280;41730;51.960;20.158;2022-12-29T07:14:23;99678.54;;;7.00;64.01
55801;BME280;41730;51.960;20.158;2022-12-29T07:16:55;99679.15;;;6.95;64.29
55801;BME280;41730;51.960;20.158;2022-12-29T07:19:27;99683.01;;;7.01;64.02
55801;BME280;41730;51.960;20.158;2022-12-29T07:21:59;99682.80;;;7.14;63.86
55801;BME280;41730;51.960;20.158;2022-12-29T07:24:31;99688.69;;;7.19;63.57
55801;BME280;41730;51.960;20.158;2022-12-29T07:27:03;99688.18;;;7.20;63.51
55801;BME280;41730;51.960;20.158;2022-12-29T07:29:34;99694.20;;;7.22;63.85
55801;BME280;41730;51.960;20.158;2022-12-29T07:32:07;99691.96;;;7.28;63.61
55801;BME280;41730;51.960;20.158;2022-12-29T07:34:39;99688.42;;;7.26;63.51
55801;BME280;41730;51.960;20.158;2022-12-29T07:37:11;99692.30;;;7.24;63.67
55801;BME280;41730;51.960;20.158;2022-12-29T07:39:46;99687.02;;;7.38;63.58
55801;BME280;41730;51.960;20.158;2022-12-29T07:42:17;99685.05;;;7.54;63.74
55801;BME280;41730;51.960;20.158;2022-12-29T07:44:49;99673.59;;;7.56;63.41
55801;BME280;41730;51.960;20.158;2022-12-29T07:47:21;99673.23;;;7.60;62.95
55801;BME280;41730;51.960;20.158;2022-12-29T07:49:53;99671.57;;;7.59;62.98
55801;BME280;41730;51.960;20.158;2022-12-29T07:52:25;99669.27;;;7.58;62.85
55801;BME280;41730;51.960;20.158;2022-12-29T07:54:56;99669.86;;;7.50;62.84
55801;BME280;41730;51.960;20.158;2022-12-29T07:57:28;99673.10;;;7.53;62.81
55801;BME280;41730;51.960;20.158;2022-12-29T08:00:01;99673.21;;;7.44;63.01
55801;BME280;41730;51.960;20.158;2022-12-29T08:02:34;99672.30;;;7.43;62.80
55801;BME280;41730;51.960;20.158;2022-12-29T08:05:07;99676.61;;;7.37;63.13
55801;BME280;41730;51.960;20.158;2022-12-29T08:07:39;99678.48;;;7.31;63.22
55801;BME280;41730;51.960;20.158;2022-12-29T08:10:11;99681.60;;;7.25;63.52
55801;BME280;41730;51.960;20.158;2022-12-29T08:12:44;99690.68;;;7.24;63.40
55801;BME280;41730;51.960;20.158;2022-12-29T08:15:15;99692.36;;;7.25;63.50
55801;BME280;41730;51.960;20.158;2022-12-29T08:17:47;99684.64;;;7.39;63.22
55801;BME280;41730;51.960;20.158;2022-12-29T08:20:19;99692.93;;;7.58;62.67
55801;BME280;41730;51.960;20.158;2022-12-29T08:22:52;99688.07;;;7.60;62.52
55801;BME280;41730;51.960;20.158;2022-12-29T08:25:23;99683.66;;;7.65;62.55
55801;BME280;41730;51.960;20.158;2022-12-29T08:27:55;99685.47;;;7.71;62.46
55801;BME280;41730;51.960;20.158;2022-12-29T08:30:27;99685.50;;;7.60;62.82
55801;BME280;41730;51.960;20.158;2022-12-29T08:32:59;99695.30;;;7.59;62.74
55801;BME280;41730;51.960;20.158;2022-12-29T08:35:31;99697.61;;;7.61;62.71
55801;BME280;41730;51.960;20.158;2022-12-29T08:38:03;99698.48;;;7.57;62.85
55801;BME280;41730;51.960;20.158;2022-12-29T08:40:35;99694.86;;;7.71;62.58
55801;BME280;41730;51.960;20.158;2022-12-29T08:43:06;99696.73;;;7.72;62.49
55801;BME280;41730;51.960;20.158;2022-12-29T08:45:39;99697.79;;;7.59;62.70
55801;BME280;41730;51.960;20.158;2022-12-29T08:48:11;99696.95;;;7.63;62.66
55801;BME280;41730;51.960;20.158;2022-12-29T08:50:44;99695.69;;;7.65;62.91
55801;BME280;41730;51.960;20.158;2022-12-29T08:53:16;99690.11;;;7.76;62.71
55801;BME280;41730;51.960;20.158;2022-12-29T08:55:54;99696.02;;;7.79;62.64
55801;BME280;41730;51.960;20.158;2022-12-29T08:58:33;99691.04;;;7.80;62.57
55801;BME280;41730;51.960;20.158;2022-12-29T09:01:05;99696.73;;;7.72;62.46
55801;BME280;41730;51.960;20.158;2022-12-29T09:03:37;99695.77;;;7.71;62.83
55801;BME280;41730;51.960;20.158;2022-12-29T09:06:28;99687.98;;;7.72;62.87
55801;BME280;41730;51.960;20.158;2022-12-29T09:09:08;99683.98;;;7.72;62.87
55801;BME280;41730;51.960;20.158;2022-12-29T09:11:40;99681.94;;;7.76;62.50
55801;BME280;41730;51.960;20.158;2022-12-29T09:14:12;99682.21;;;7.68;62.73
55801;BME280;41730;51.960;20.158;2022-12-29T09:16:43;99688.67;;;7.77;62.68
55801;BME280;41730;51.960;20.158;2022-12-29T09:19:32;99687.63;;;7.88;62.32
55801;BME280;41730;51.960;20.158;2022-12-29T09:22:04;99685.32;;;7.88;62.55
55801;BME280;41730;51.960;20.158;2022-12-29T09:24:35;99687.42;;;7.82;62.60
55801;BME280;41730;51.960;20.158;2022-12-29T09:27:07;99689.35;;;7.68;63.03
55801;BME280;41730;51.960;20.158;2022-12-29T09:29:43;99678.27;;;7.69;62.99
55801;BME280;41730;51.960;20.158;2022-12-29T09:32:20;99676.28;;;7.94;62.59
55801;BME280;41730;51.960;20.158;2022-12-29T09:34:53;99671.95;;;8.03;62.20
55801;BME280;41730;51.960;20.158;2022-12-29T09:37:24;99663.90;;;8.03;62.34
55801;BME280;41730;51.960;20.158;2022-12-29T09:39:59;99660.50;;;8.08;62.39
55801;BME280;41730;51.960;20.158;2022-12-29T09:42:35;99663.91;;;8.09;62.43
55801;BME280;41730;51.960;20.158;2022-12-29T09:45:14;99670.95;;;8.17;62.60
55801;BME280;41730;51.960;20.158;2022-12-29T09:47:47;99664.70;;;8.27;62.12
55801;BME280;41730;51.960;20.158;2022-12-29T09:50:24;99663.73;;;8.35;62.04
55801;BME280;41730;51.960;20.158;2022-12-29T09:53:03;99663.71;;;8.36;61.83
55801;BME280;41730;51.960;20.158;2022-12-29T09:55:39;99658.46;;;8.40;61.39
55801;BME280;41730;51.960;20.158;2022-12-29T09:58:16;99656.00;;;8.44;61.70
55801;BME280;41730;51.960;20.158;2022-12-29T10:00:54;99648.26;;;8.54;61.39
55801;BME280;41730;51.960;20.158;2022-12-29T10:03:31;99649.67;;;8.64;61.31
55801;BME280;41730;51.960;20.158;2022-12-29T10:06:13;99647.77;;;8.68;61.01
55801;BME280;41730;51.960;20.158;2022-12-29T10:08:51;99647.16;;;8.67;61.16
55801;BME280;41730;51.960;20.158;2022-12-29T10:11:36;99650.62;;;8.65;61.29
55801;BME280;41730;51.960;20.158;2022-12-29T10:14:25;99643.83;;;8.69;61.48
55801;BME280;41730;51.960;20.158;2022-12-29T10:17:04;99643.91;;;8.76;61.21
55801;BME280;41730;51.960;20.158;2022-12-29T10:19:55;99639.42;;;8.90;61.11
55801;BME280;41730;51.960;20.158;2022-12-29T10:22:38;99640.79;;;8.97;60.68
55801;BME280;41730;51.960;20.158;2022-12-29T10:25:18;99636.92;;;8.97;60.33
55801;BME280;41730;51.960;20.158;2022-12-29T10:27:52;99635.70;;;9.01;60.39
55801;BME280;41730;51.960;20.158;2022-12-29T10:30:25;99629.98;;;8.90;60.41
55801;BME280;41730;51.960;20.158;2022-12-29T10:33:00;99631.31;;;8.83;60.68
55801;BME280;41730;51.960;20.158;2022-12-29T10:35:36;99631.41;;;8.84;60.91
55801;BME280;41730;51.960;20.158;2022-12-29T10:38:15;99632.79;;;8.94;60.52
55801;BME280;41730;51.960;20.158;2022-12-29T10:40:53;99634.64;;;8.99;60.39
55801;BME280;41730;51.960;20.158;2022-12-29T10:43:29;99637.04;;;8.94;60.61
55801;BME280;41730;51.960;20.158;2022-12-29T10:46:04;99633.81;;;9.01;60.30
55801;BME280;41730;51.960;20.158;2022-12-29T10:48:38;99629.95;;;9.01;60.49
55801;BME280;41730;51.960;20.158;2022-12-29T10:51:10;99633.80;;;8.97;60.58
55801;BME280;41730;51.960;20.158;2022-12-29T10:53:46;99633.95;;;9.05;60.47
55801;BME280;41730;51.960;20.158;2022-12-29T10:56:28;99630.98;;;9.13;60.19
55801;BME280;41730;51.960;20.158;2022-12-29T10:59:03;99628.92;;;9.19;60.36
55801;BME280;41730;51.960;20.158;2022-12-29T11:01:45;99623.19;;;9.12;60.42
55801;BME280;41730;51.960;20.158;2022-12-29T11:04:30;99614.88;;;9.13;60.40
55801;BME280;41730;51.960;20.158;2022-12-29T11:07:05;99615.80;;;9.23;60.24
55801;BME280;41730;51.960;20.158;2022-12-29T11:09:45;99612.39;;;9.14;60.11
55801;BME280;41730;51.960;20.158;2022-12-29T11:12:25;99615.64;;;8.98;60.77
55801;BME280;41730;51.960;20.158;2022-12-29T11:15:13;99611.70;;;8.89;61.05
55801;BME280;41730;51.960;20.158;2022-12-29T11:17:48;99609.88;;;8.98;61.10
55801;BME280;41730;51.960;20.158;2022-12-29T11:20:33;99608.52;;;9.12;60.59
55801;BME280;41730;51.960;20.158;2022-12-29T11:23:24;99609.24;;;9.14;60.67
55801;BME280;41730;51.960;20.158;2022-12-29T11:26:16;99606.42;;;9.18;60.47
55801;BME280;41730;51.960;20.158;2022-12-29T11:29:03;99606.15;;;9.19;60.51
55801;BME280;41730;51.960;20.158;2022-12-29T11:31:41;99597.48;;;9.29;60.31
55801;BME280;41730;51.960;20.158;2022-12-29T11:34:19;99598.66;;;9.37;60.18
55801;BME280;41730;51.960;20.158;2022-12-29T11:36:53;99596.79;;;9.38;60.17
55801;BME280;41730;51.960;20.158;2022-12-29T11:39:32;99597.27;;;9.31;60.43
55801;BME280;41730;51.960;20.158;2022-12-29T11:42:05;99600.20;;;9.26;60.67
55801;BME280;41730;51.960;20.158;2022-12-29T11:44:44;99596.20;;;9.37;60.56
55801;BME280;41730;51.960;20.158;2022-12-29T11:47:25;99599.85;;;9.48;60.20
55801;BME280;41730;51.960;20.158;2022-12-29T11:50:00;99595.69;;;9.47;60.16
55801;BME280;41730;51.960;20.158;2022-12-29T11:52:35;99592.90;;;9.41;60.65
55801;BME280;41730;51.960;20.158;2022-12-29T11:55:18;99583.54;;;9.42;60.42
55801;BME280;41730;51.960;20.158;2022-12-29T11:57:53;99581.08;;;9.44;60.44
55801;BME280;41730;51.960;20.158;2022-12-29T12:00:27;99583.51;;;9.38;60.73
55801;BME280;41730;51.960;20.158;2022-12-29T12:03:02;99584.55;;;9.36;60.84
55801;BME280;41730;51.960;20.158;2022-12-29T12:05:39;99585.98;;;9.32;61.30
55801;BME280;41730;51.960;20.158;2022-12-29T12:08:19;99588.77;;;9.44;60.99
55801;BME280;41730;51.960;20.158;2022-12-29T12:10:57;99586.30;;;9.60;60.85
55801;BME280;41730;51.960;20.158;2022-12-29T12:13:33;99582.83;;;9.68;60.53
55801;BME280;41730;51.960;20.158;2022-12-29T12:16:09;99583.45;;;9.67;60.60
55801;BME280;41730;51.960;20.158;2022-12-29T12:18:47;99577.84;;;9.65;60.69
55801;BME280;41730;51.960;20.158;2022-12-29T12:21:25;99572.96;;;9.65;60.76
55801;BME280;41730;51.960;20.158;2022-12-29T12:24:23;99566.01;;;9.68;60.96
55801;BME280;41730;51.960;20.158;2022-12-29T12:27:11;99558.45;;;9.74;60.73
55801;BME280;41730;51.960;20.158;2022-12-29T12:29:50;99556.77;;;9.87;60.42
55801;BME280;41730;51.960;20.158;2022-12-29T12:32:28;99558.27;;;9.90;60.23
55801;BME280;41730;51.960;20.158;2022-12-29T12:35:10;99558.25;;;9.92;60.15
55801;BME280;41730;51.960;20.158;2022-12-29T12:37:59;99558.30;;;9.97;60.16
55801;BME280;41730;51.960;20.158;2022-12-29T12:41:02;99558.23;;;9.92;60.23
55801;BME280;41730;51.960;20.158;2022-12-29T12:43:52;99559.73;;;9.89;60.42
55801;BME280;41730;51.960;20.158;2022-12-29T12:47:06;99549.66;;;10.00;60.13
55801;BME280;41730;51.960;20.158;2022-12-29T12:50:15;99555.11;;;9.98;60.03
55801;BME280;41730;51.960;20.158;2022-12-29T12:53:09;99556.81;;;10.02;60.11
55801;BME280;41730;51.960;20.158;2022-12-29T12:56:07;99556.16;;;10.01;60.08
55801;BME280;41730;51.960;20.158;2022-12-29T12:58:48;99557.36;;;9.88;60.41
55801;BME280;41730;51.960;20.158;2022-12-29T13:01:36;99560.10;;;9.95;60.29
55801;BME280;41730;51.960;20.158;2022-12-29T13:04:26;99560.59;;;10.13;60.02
55801;BME280;41730;51.960;20.158;2022-12-29T13:07:15;99557.82;;;10.18;59.93
55801;BME280;41730;51.960;20.158;2022-12-29T13:09:58;99554.48;;;10.26;59.71
55801;BME280;41730;51.960;20.158;2022-12-29T13:12:41;99553.52;;;10.25;59.65
55801;BME280;41730;51.960;20.158;2022-12-29T13:15:26;99559.20;;;10.24;59.59
55801;BME280;41730;51.960;20.158;2022-12-29T13:18:10;99559.21;;;10.22;59.84
55801;BME280;41730;51.960;20.158;2022-12-29T13:20:49;99563.88;;;10.23;59.85
55801;BME280;41730;51.960;20.158;2022-12-29T13:23:27;99569.33;;;10.11;60.05
55801;BME280;41730;51.960;20.158;2022-12-29T13:26:07;99571.42;;;10.01;60.37
55801;BME280;41730;51.960;20.158;2022-12-29T13:28:48;99565.21;;;10.06;60.30
55801;BME280;41730;51.960;20.158;2022-12-29T13:31:27;99568.81;;;10.20;60.15
55801;BME280;41730;51.960;20.158;2022-12-29T13:34:05;99569.02;;;10.22;59.96
55801;BME280;41730;51.960;20.158;2022-12-29T13:36:45;99570.38;;;10.09;60.31
55801;BME280;41730;51.960;20.158;2022-12-29T13:39:21;99575.11;;;9.99;60.65
55801;BME280;41730;51.960;20.158;2022-12-29T13:41:56;99580.45;;;9.98;60.74
55801;BME280;41730;51.960;20.158;2022-12-29T13:44:30;99584.04;;;9.91;60.94
55801;BME280;41730;51.960;20.158;2022-12-29T13:47:13;99581.45;;;10.07;60.66
55801;BME280;41730;51.960;20.158;2022-12-29T13:49:47;99584.48;;;10.00;60.67
55801;BME280;41730;51.960;20.158;2022-12-29T13:52:27;99578.88;;;9.95;61.06
55801;BME280;41730;51.960;20.158;2022-12-29T13:55:17;99583.81;;;10.00;61.03